Time;durP1;ratioP1;P1;durP2;ratioP2;P2;SDS_P1;SDS_P2;PMS_P1;PMS_P2;Temp;Humidity;BMP_temperature;BMP_pressure;BME280_temperature;BME280_humidity;BME280_pressure;Samples;Min_cycle;Max_cycle;Signal;HPM_P1;HPM_P2
2021/06/28 00:01:41;;;;;;;1999.90;999.90;;;13.20;99.90;;;;;;6067054;23;20223;-64
2021/06/28 00:04:08;;;;;;;1999.90;999.90;;;13.20;99.90;;;;;;6066792;23;20390;-63
2021/06/28 00:06:35;;;;;;;1999.90;999.90;;;13.20;99.90;;;;;;6067489;23;20564;-51
2021/06/28 00:09:03;;;;;;;1999.90;999.90;;;13.20;99.90;;;;;;6066655;23;20153;-62
2021/06/28 00:11:30;;;;;;;1999.90;999.90;;;13.20;99.90;;;;;;6066893;23;20208;-56
2021/06/28 00:13:56;;;;;;;1999.90;999.90;;;13.30;99.90;;;;;;6067126;23;20168;-58
2021/06/28 00:16:24;;;;;;;1999.90;999.90;;;13.30;99.90;;;;;;6067027;23;20163;-54
2021/06/28 00:18:52;;;;;;;1999.90;999.90;;;13.30;99.90;;;;;;6066966;23;20153;-55
2021/06/28 00:21:20;;;;;;;1999.90;999.90;;;13.30;99.90;;;;;;6066710;23;20168;-61
2021/06/28 00:23:47;;;;;;;1999.90;999.90;;;13.30;99.90;;;;;;6066500;23;20168;-51
2021/06/28 00:26:14;;;;;;;1999.90;999.90;;;13.30;99.90;;;;;;6041162;23;20160;-56
2021/06/28 00:28:41;;;;;;;1999.90;999.90;;;13.30;99.90;;;;;;6066591;23;20180;-63
2021/06/28 00:31:08;;;;;;;1999.90;999.90;;;13.30;99.90;;;;;;6066296;23;20161;-53
2021/06/28 00:33:35;;;;;;;1999.90;999.90;;;13.30;99.90;;;;;;6066506;23;20655;-67
2021/06/28 00:36:02;;;;;;;1999.90;999.90;;;13.30;99.90;;;;;;6066659;23;20235;-50
2021/06/28 00:38:29;;;;;;;1999.90;999.90;;;13.30;99.90;;;;;;6066310;23;20156;-53
2021/06/28 00:40:56;;;;;;;1999.90;999.90;;;13.40;99.90;;;;;;6066988;23;20153;-52
2021/06/28 00:43:22;;;;;;;1999.90;999.90;;;13.40;99.90;;;;;;6066691;23;20152;-50
2021/06/28 00:45:49;;;;;;;1999.90;999.90;;;13.40;99.90;;;;;;6066422;23;20175;-52
2021/06/28 00:48:17;;;;;;;1999.90;999.90;;;13.40;99.90;;;;;;6067167;23;20523;-50
2021/06/28 00:50:50;;;;;;;1999.90;999.90;;;13.40;99.90;;;;;;6066411;23;20149;-60
2021/06/28 00:53:19;;;;;;;1999.90;999.90;;;13.40;99.90;;;;;;6066571;23;20144;-50
2021/06/28 00:55:47;;;;;;;1999.90;999.90;;;13.40;99.90;;;;;;6066826;23;20164;-64
2021/06/28 00:58:15;;;;;;;1999.90;999.90;;;13.40;99.90;;;;;;6066547;23;20227;-65
2021/06/28 01:00:42;;;;;;;1999.90;999.90;;;13.40;99.90;;;;;;6066865;23;20152;-50
2021/06/28 01:03:09;;;;;;;1999.90;999.90;;;13.50;99.90;;;;;;6066525;23;20148;-57
2021/06/28 01:05:38;;;;;;;1999.90;999.90;;;13.50;99.90;;;;;;6066628;23;20152;-56
2021/06/28 01:08:06;;;;;;;1999.90;999.90;;;13.50;99.90;;;;;;6066566;23;20153;-51
2021/06/28 01:10:34;;;;;;;1999.90;999.90;;;13.50;99.90;;;;;;6041328;23;20149;-49
2021/06/28 01:13:01;;;;;;;1999.90;999.90;;;13.50;99.90;;;;;;6066237;23;20667;-50
2021/06/28 01:15:28;;;;;;;1999.90;999.90;;;13.50;99.90;;;;;;6066656;23;20192;-66
2021/06/28 01:17:55;;;;;;;1999.90;999.90;;;13.50;99.90;;;;;;6066971;23;20452;-52
2021/06/28 01:20:25;;;;;;;1999.90;999.90;;;13.50;99.90;;;;;;6066543;23;20149;-65
2021/06/28 01:22:54;;;;;;;1999.90;999.90;;;13.50;99.90;;;;;;6067102;23;20148;-51
2021/06/28 01:25:24;;;;;;;1999.90;999.90;;;13.50;99.90;;;;;;6065533;23;20228;-49
2021/06/28 01:27:51;;;;;;;1999.90;999.90;;;13.50;99.90;;;;;;6066288;23;20236;-53
2021/06/28 01:30:21;;;;;;;1999.90;999.90;;;13.50;99.90;;;;;;6066722;23;20149;-51
2021/06/28 01:32:49;;;;;;;1999.90;999.90;;;13.50;99.90;;;;;;6066524;23;20228;-51
2021/06/28 01:35:16;;;;;;;1999.90;999.90;;;13.50;99.90;;;;;;6066313;23;20271;-66
2021/06/28 01:37:46;;;;;;;1999.90;999.90;;;13.50;99.90;;;;;;6066480;23;20175;-52
2021/06/28 01:40:13;;;;;;;1999.90;999.90;;;13.60;99.90;;;;;;6066211;23;20194;-65
2021/06/28 01:42:41;;;;;;;1999.90;999.90;;;13.60;99.90;;;;;;6066372;23;20460;-65
2021/06/28 01:45:11;;;;;;;1999.90;999.90;;;13.60;99.90;;;;;;6066476;23;20157;-65
2021/06/28 01:47:39;;;;;;;1999.90;999.90;;;13.60;99.90;;;;;;6066266;23;20228;-66
2021/06/28 01:50:09;;;;;;;1999.90;999.90;;;13.60;99.90;;;;;;6067384;23;20145;-49
2021/06/28 01:52:37;;;;;;;1999.90;999.90;;;13.70;99.90;;;;;;6066364;23;20204;-53
2021/06/28 01:55:06;;;;;;;1999.90;999.90;;;13.60;99.90;;;;;;6065930;23;20188;-51
2021/06/28 01:57:35;;;;;;;1999.90;999.90;;;13.70;99.90;;;;;;6066552;23;20227;-51
2021/06/28 02:00:03;;;;;;;1999.90;999.90;;;13.60;99.90;;;;;;6065835;23;20153;-54
2021/06/28 02:02:30;;;;;;;1999.90;999.90;;;13.60;99.90;;;;;;6066152;23;20584;-54
2021/06/28 02:04:57;;;;;;;1999.90;999.90;;;13.60;99.90;;;;;;6066339;23;20153;-57
2021/06/28 02:07:24;;;;;;;1999.90;999.90;;;13.60;99.90;;;;;;6066130;23;20614;-53
2021/06/28 02:09:51;;;;;;;1999.90;999.90;;;13.60;99.90;;;;;;6066014;23;20193;-52
2021/06/28 02:12:18;;;;;;;1999.90;999.90;;;13.70;99.90;;;;;;6066083;23;20200;-50
2021/06/28 02:14:45;;;;;;;1999.90;999.90;;;13.70;99.90;;;;;;6065908;23;20176;-53
2021/06/28 02:17:12;;;;;;;1999.90;999.90;;;13.60;99.90;;;;;;6066063;23;20232;-53
2021/06/28 02:19:38;;;;;;;1999.90;999.90;;;13.60;99.90;;;;;;6066253;23;20593;-50
2021/06/28 02:22:05;;;;;;;1999.90;999.90;;;13.60;99.90;;;;;;6066031;23;20155;-51
2021/06/28 02:24:32;;;;;;;1999.90;999.90;;;13.60;99.90;;;;;;6067620;23;20203;-55
2021/06/28 02:27:00;;;;;;;1999.90;999.90;;;13.70;99.90;;;;;;6067811;23;20148;-51
2021/06/28 02:29:26;;;;;;;1999.90;999.90;;;13.70;99.90;;;;;;6067508;23;20215;-51
2021/06/28 02:31:53;;;;;;;1999.90;999.90;;;13.70;99.90;;;;;;6068765;23;20145;-65
2021/06/28 02:34:20;;;;;;;1999.90;999.90;;;13.70;99.90;;;;;;6067610;23;20183;-56
2021/06/28 02:36:47;;;;;;;1999.90;999.90;;;13.80;99.90;;;;;;6067761;23;20153;-49
2021/06/28 02:39:13;;;;;;;1999.90;999.90;;;13.70;99.90;;;;;;6068190;23;20156;-52
2021/06/28 02:41:41;;;;;;;1999.90;999.90;;;13.80;99.90;;;;;;6067483;23;20636;-59
2021/06/28 02:44:08;;;;;;;1999.90;999.90;;;13.70;99.90;;;;;;6067916;23;20145;-51
2021/06/28 02:46:35;;;;;;;1999.90;999.90;;;13.70;99.90;;;;;;6068026;23;20149;-65
2021/06/28 02:49:03;;;;;;;1999.90;999.90;;;13.70;99.90;;;;;;6067536;23;20145;-66
2021/06/28 02:51:31;;;;;;;1999.90;999.90;;;13.70;99.90;;;;;;6067705;23;20176;-66
2021/06/28 02:53:58;;;;;;;1999.90;999.90;;;13.70;99.90;;;;;;6067436;23;20192;-57
2021/06/28 02:56:24;;;;;;;1999.90;999.90;;;13.70;99.90;;;;;;6067689;23;20172;-54
2021/06/28 02:58:56;;;;;;;1999.90;999.90;;;13.70;99.90;;;;;;6067611;23;20153;-66
2021/06/28 03:01:25;;;;;;;1999.90;999.90;;;13.70;99.90;;;;;;6068020;23;20152;-56
2021/06/28 03:03:53;;;;;;;1999.90;999.90;;;13.70;99.90;;;;;;6067282;23;20477;-51
2021/06/28 03:06:20;;;;;;;1999.90;999.90;;;13.70;99.90;;;;;;6068045;23;20167;-56
2021/06/28 03:08:47;;;;;;;1999.90;999.90;;;13.70;99.90;;;;;;6067580;23;20612;-64
2021/06/28 03:11:17;;;;;;;1999.90;999.90;;;13.70;99.90;;;;;;6067211;23;20149;-66
2021/06/28 03:13:44;;;;;;;1999.90;999.90;;;13.70;99.90;;;;;;6068183;23;20187;-63
2021/06/28 03:16:11;;;;;;;1999.90;999.90;;;13.40;99.90;;;;;;6066938;23;20495;-66
2021/06/28 03:18:38;;;;;;;1999.90;999.90;;;13.10;99.90;;;;;;6067496;23;20204;-51
2021/06/28 03:21:07;;;;;;;1999.90;999.90;;;12.90;99.90;;;;;;6067798;23;20176;-52
2021/06/28 03:23:35;;;;;;;1999.90;999.90;;;12.80;99.90;;;;;;6067414;23;20160;-51
2021/06/28 03:26:03;;;;;;;1999.90;999.90;;;12.70;99.90;;;;;;6067287;23;20631;-52
2021/06/28 03:28:30;;;;;;;1999.90;999.90;;;12.60;99.90;;;;;;6067213;23;20503;-51
2021/06/28 03:30:56;;;;;;;1999.90;999.90;;;12.60;99.90;;;;;;6067330;23;20181;-50
2021/06/28 03:33:23;;;;;;;1999.90;999.90;;;12.50;99.90;;;;;;6067089;23;20156;-53
2021/06/28 03:35:51;;;;;;;1999.90;999.90;;;12.50;99.90;;;;;;6067405;23;20584;-51
2021/06/28 03:38:18;;;;;;;1999.90;999.90;;;12.40;99.90;;;;;;6067539;23;20236;-67
2021/06/28 03:40:45;;;;;;;1999.90;999.90;;;12.40;99.90;;;;;;6067377;23;20184;-67
2021/06/28 03:43:12;;;;;;;1999.90;999.90;;;12.40;99.90;;;;;;6067252;23;20144;-54
2021/06/28 03:45:40;;;;;;;1999.90;999.90;;;12.40;99.90;;;;;;6066887;23;20153;-66
2021/06/28 03:48:08;;;;;;;1999.90;999.90;;;12.30;99.90;;;;;;6067542;23;20590;-51
2021/06/28 03:50:36;;;;;;;1999.90;999.90;;;12.30;99.90;;;;;;6067065;23;20145;-65
2021/06/28 03:53:04;;;;;;;1999.90;999.90;;;12.30;99.90;;;;;;6067003;23;20155;-63
2021/06/28 03:55:30;;;;;;;1999.90;999.90;;;12.30;99.90;;;;;;6067482;23;20223;-51
2021/06/28 03:57:58;;;;;;;1999.90;999.90;;;12.30;99.90;;;;;;6066996;23;20204;-48
2021/06/28 04:00:27;;;;;;;1999.90;999.90;;;12.30;99.90;;;;;;6067543;23;20159;-53
2021/06/28 04:02:56;;;;;;;1999.90;999.90;;;12.30;99.90;;;;;;6067149;23;20569;-64
2021/06/28 04:05:23;;;;;;;1999.90;999.90;;;12.30;99.90;;;;;;6066960;23;20153;-61
2021/06/28 04:07:51;;;;;;;1999.90;999.90;;;12.30;99.90;;;;;;6066947;23;20172;-49
2021/06/28 04:10:20;;;;;;;1999.90;999.90;;;12.30;99.90;;;;;;6067040;23;20145;-50
2021/06/28 04:12:50;;;;;;;1999.90;999.90;;;12.30;99.90;;;;;;6066929;23;20205;-49
2021/06/28 04:15:18;;;;;;;1999.90;999.90;;;12.30;99.90;;;;;;6067155;23;20199;-67
2021/06/28 04:17:50;;;;;;;1999.90;999.90;;;12.30;99.90;;;;;;6066801;23;20145;-62
2021/06/28 04:20:20;;;;;;;1999.90;999.90;;;12.30;99.90;;;;;;6066733;23;20164;-62
2021/06/28 04:22:48;;;;;;;1999.90;999.90;;;12.30;99.90;;;;;;6067042;23;20548;-52
2021/06/28 04:25:17;;;;;;;1999.90;999.90;;;12.30;99.90;;;;;;6066325;23;20659;-54
2021/06/28 04:27:45;;;;;;;1999.90;999.90;;;12.30;99.90;;;;;;6066632;23;20145;-67
2021/06/28 04:30:14;;;;;;;1999.90;999.90;;;12.20;99.90;;;;;;6067139;23;20152;-50
2021/06/28 04:32:42;;;;;;;1999.90;999.90;;;12.20;99.90;;;;;;6066488;23;20148;-56
2021/06/28 04:35:12;;;;;;;1999.90;999.90;;;12.20;99.90;;;;;;6066607;23;20639;-52
2021/06/28 04:37:40;;;;;;;1999.90;999.90;;;12.20;99.90;;;;;;6066857;23;20155;-68
2021/06/28 04:40:09;;;;;;;1999.90;999.90;;;12.10;99.90;;;;;;6066692;23;20187;-52
2021/06/28 04:42:36;;;;;;;1999.90;999.90;;;12.20;99.90;;;;;;6066778;23;20526;-54
2021/06/28 04:45:04;;;;;;;1999.90;999.90;;;12.10;99.90;;;;;;6066489;23;20199;-52
2021/06/28 04:47:31;;;;;;;1999.90;999.90;;;12.20;99.90;;;;;;6066769;23;20297;-56
2021/06/28 04:50:06;;;;;;;1999.90;999.90;;;12.20;99.90;;;;;;6066862;23;20148;-52
2021/06/28 04:52:35;;;;;;;1999.90;999.90;;;12.20;99.90;;;;;;6066588;23;20243;-59
2021/06/28 04:55:02;;;;;;;1999.90;999.90;;;12.20;99.90;;;;;;6066210;23;20624;-50
2021/06/28 04:57:29;;;;;;;1999.90;999.90;;;12.20;99.90;;;;;;6067193;23;20655;-53
2021/06/28 04:59:56;;;;;;;1999.90;999.90;;;12.20;99.90;;;;;;6066443;23;20156;-58
2021/06/28 05:02:23;;;;;;;1999.90;999.90;;;12.30;99.90;;;;;;6066314;23;20156;-65
2021/06/28 05:04:50;;;;;;;1999.90;999.90;;;12.30;99.90;;;;;;6066834;23;20159;-50
2021/06/28 05:07:17;;;;;;;1999.90;999.90;;;12.40;99.90;;;;;;6066655;23;20203;-67
2021/06/28 05:09:45;;;;;;;1999.90;999.90;;;12.40;99.90;;;;;;6066448;23;20534;-67
2021/06/28 05:12:14;;;;;;;1999.90;999.90;;;12.40;99.90;;;;;;6066649;23;20145;-55
2021/06/28 05:14:41;;;;;;;1999.90;999.90;;;12.40;99.90;;;;;;6066295;23;20184;-48
2021/06/28 05:17:09;;;;;;;1999.90;999.90;;;12.40;99.90;;;;;;6066484;23;20180;-66
2021/06/28 05:19:36;;;;;;;1999.90;999.90;;;12.40;99.90;;;;;;6066423;23;20596;-65
2021/06/28 05:22:04;;;;;;;1999.90;999.90;;;12.40;99.90;;;;;;6066451;23;20145;-48
2021/06/28 05:24:31;;;;;;;1999.90;999.90;;;12.40;99.90;;;;;;6066417;23;20647;-48
2021/06/28 05:26:58;;;;;;;1999.90;999.90;;;12.40;99.90;;;;;;6066967;23;20149;-50
2021/06/28 05:29:25;;;;;;;1999.90;999.90;;;12.30;99.90;;;;;;6066228;23;20464;-51
2021/06/28 05:31:52;;;;;;;1999.90;999.90;;;12.30;99.90;;;;;;6066648;23;20155;-49
2021/06/28 05:34:19;;;;;;;1999.90;999.90;;;12.40;99.90;;;;;;6065728;23;20210;-63
2021/06/28 05:36:46;;;;;;;1999.90;999.90;;;12.40;99.90;;;;;;6065941;23;20153;-47
2021/06/28 05:39:13;;;;;;;1999.90;999.90;;;12.30;99.90;;;;;;6066566;23;20145;-47
2021/06/28 05:41:39;;;;;;;1999.90;999.90;;;12.30;99.90;;;;;;6065897;23;20473;-54
2021/06/28 05:44:06;;;;;;;1999.90;999.90;;;12.30;99.90;;;;;;6065929;23;20255;-48
2021/06/28 05:46:33;;;;;;;1999.90;999.90;;;12.30;99.90;;;;;;6066449;23;20149;-48
2021/06/28 05:49:00;;;;;;;1999.90;999.90;;;12.30;99.90;;;;;;6065955;23;20641;-57
2021/06/28 05:51:27;;;;;;;1999.90;999.90;;;12.30;99.90;;;;;;6065866;23;20176;-62
2021/06/28 05:53:54;;;;;;;1999.90;999.90;;;12.30;99.90;;;;;;6065725;23;20188;-59
2021/06/28 05:56:21;;;;;;;1999.90;999.90;;;12.30;99.90;;;;;;6065509;23;20592;-52
2021/06/28 05:58:48;;;;;;;1999.90;999.90;;;12.30;99.90;;;;;;6067783;23;20200;-47
2021/06/28 06:01:16;;;;;;;1999.90;999.90;;;12.20;99.90;;;;;;6067493;23;20168;-60
2021/06/28 06:03:43;;;;;;;1999.90;999.90;;;12.30;99.90;;;;;;6067308;23;20239;-45
2021/06/28 06:06:10;;;;;;;1999.90;999.90;;;12.30;99.90;;;;;;6067677;23;20156;-50
2021/06/28 06:08:37;;;;;;;1999.90;999.90;;;12.20;99.90;;;;;;6067574;23;20244;-52
2021/06/28 06:11:04;;;;;;;1999.90;999.90;;;12.20;99.90;;;;;;6067375;23;20536;-59
2021/06/28 06:13:31;;;;;;;1999.90;999.90;;;12.20;99.90;;;;;;6067816;23;20232;-42
2021/06/28 06:15:59;;;;;;;1999.90;999.90;;;12.30;99.90;;;;;;6040900;23;20164;-37
2021/06/28 06:18:26;;;;;;;1999.90;999.90;;;12.30;99.90;;;;;;6066907;23;20183;-44
2021/06/28 06:20:53;;;;;;;1999.90;999.90;;;12.40;99.90;;;;;;6067425;23;20175;-47
2021/06/28 06:23:19;;;;;;;1999.90;999.90;;;12.60;99.90;;;;;;6066407;23;20577;-45
2021/06/28 06:25:47;;;;;;;1999.90;999.90;;;12.70;99.90;;;;;;6066582;23;20196;-38
2021/06/28 06:28:14;;;;;;;1999.90;999.90;;;12.90;99.90;;;;;;6066904;23;20152;-42
2021/06/28 06:30:42;;;;;;;1999.90;999.90;;;13.10;99.90;;;;;;6066270;23;20181;-40
2021/06/28 06:33:10;;;;;;;1999.90;999.90;;;13.00;99.90;;;;;;6066417;23;20235;-41
2021/06/28 06:35:37;;;;;;;1999.90;999.90;;;13.00;99.90;;;;;;6066806;23;20188;-47
2021/06/28 06:38:05;;;;;;;1999.90;999.90;;;13.00;99.90;;;;;;6066667;23;20144;-42
2021/06/28 06:40:32;;;;;;;1999.90;999.90;;;12.90;99.90;;;;;;6067234;23;20153;-40
2021/06/28 06:42:59;;;;;;;1999.90;999.90;;;13.00;99.90;;;;;;6065585;23;20199;-43
2021/06/28 06:45:26;;;;;;;1999.90;999.90;;;13.00;99.90;;;;;;6066065;23;20164;-46
2021/06/28 06:47:53;;;;;;;1999.90;999.90;;;13.20;99.90;;;;;;6066553;23;20153;-46
2021/06/28 06:50:20;;;;;;;1999.90;999.90;;;13.10;99.90;;;;;;6066703;23;20176;-58
2021/06/28 06:52:47;;;;;;;1999.90;999.90;;;12.90;99.90;;;;;;6066274;23;20157;-55
2021/06/28 06:55:15;;;;;;;1999.90;999.90;;;12.90;99.90;;;;;;6066289;23;20195;-46
2021/06/28 06:57:42;;;;;;;1999.90;999.90;;;12.90;99.90;;;;;;6066320;23;20178;-48
2021/06/28 07:00:16;;;;;;;1999.90;999.90;;;12.70;99.90;;;;;;6066501;23;20171;-46
2021/06/28 07:02:43;;;;;;;1999.90;999.90;;;12.70;99.90;;;;;;6066472;23;20145;-53
2021/06/28 07:05:12;;;;;;;1999.90;999.90;;;12.70;99.90;;;;;;6066043;23;20153;-45
2021/06/28 07:07:40;;;;;;;1999.90;999.90;;;12.60;99.90;;;;;;6065877;23;20251;-46
2021/06/28 07:10:09;;;;;;;1999.90;999.90;;;12.50;99.90;;;;;;6065848;23;20176;-45
2021/06/28 07:12:37;;;;;;;1999.90;999.90;;;12.50;99.90;;;;;;6039980;23;20671;-44
2021/06/28 07:15:05;;;;;;;1999.90;999.90;;;13.20;99.90;;;;;;6065851;23;20180;-49
2021/06/28 07:17:32;;;;;;;1999.90;999.90;;;12.80;99.90;;;;;;6066034;23;20231;-51
2021/06/28 07:19:59;;;;;;;1999.90;999.90;;;12.70;99.90;;;;;;6065552;23;20153;-53
2021/06/28 07:22:26;;;;;;;1999.90;999.90;;;12.50;99.90;;;;;;6066257;23;20152;-44
2021/06/28 07:24:53;;;;;;;1999.90;999.90;;;12.50;99.90;;;;;;6065908;23;20252;-54
2021/06/28 07:27:19;;;;;;;1999.90;999.90;;;12.50;99.90;;;;;;6064953;23;20223;-48
2021/06/28 07:29:46;;;;;;;1999.90;999.90;;;12.40;99.90;;;;;;6066188;23;20259;-46
2021/06/28 07:32:13;;;;;;;1999.90;999.90;;;12.50;99.90;;;;;;6065645;23;20219;-50
2021/06/28 07:34:40;;;;;;;1999.90;999.90;;;12.50;99.90;;;;;;6065964;23;20188;-51
2021/06/28 07:37:07;;;;;;;1999.90;999.90;;;12.40;99.90;;;;;;6066159;23;20155;-54
2021/06/28 07:39:34;;;;;;;1999.90;999.90;;;12.40;99.90;;;;;;6066274;23;20160;-57
2021/06/28 07:42:00;;;;;;;1999.90;999.90;;;12.40;99.90;;;;;;6065959;23;20588;-53
2021/06/28 07:44:27;;;;;;;1999.90;999.90;;;12.40;99.90;;;;;;6066081;23;20159;-40
2021/06/28 07:46:54;;;;;;;1999.90;999.90;;;12.60;99.90;;;;;;6065732;23;20228;-44
2021/06/28 07:49:21;;;;;;;1999.90;999.90;;;12.50;99.90;;;;;;6065621;23;20593;-43
2021/06/28 07:51:48;;;;;;;1999.90;999.90;;;12.50;99.90;;;;;;6066123;23;20160;-49
2021/06/28 07:54:17;;;;;;;1999.90;999.90;;;12.50;99.90;;;;;;6065523;23;20527;-42
2021/06/28 07:56:44;;;;;;;1999.90;999.90;;;12.50;99.90;;;;;;6065241;23;20163;-52
2021/06/28 07:59:11;;;;;;;1999.90;999.90;;;12.50;99.90;;;;;;6066542;23;20212;-42
2021/06/28 08:01:37;;;;;;;1999.90;999.90;;;12.50;99.90;;;;;;6065826;23;20651;-47
2021/06/28 08:04:05;;;;;;;1999.90;999.90;;;12.50;99.90;;;;;;6065883;23;20486;-45
2021/06/28 08:06:31;;;;;;;1999.90;999.90;;;12.50;99.90;;;;;;6066352;23;20188;-46
2021/06/28 08:08:58;;;;;;;1999.90;999.90;;;12.50;99.90;;;;;;6065528;23;20148;-43
2021/06/28 08:11:25;;;;;;;1999.90;999.90;;;12.50;99.90;;;;;;6065445;23;20152;-48
2021/06/28 08:13:54;;;;;;;1999.90;999.90;;;12.50;99.90;;;;;;6066207;23;20175;-43
2021/06/28 08:16:23;;;;;;;1999.90;999.90;;;12.50;99.90;;;;;;6065634;23;20167;-43
2021/06/28 08:18:52;;;;;;;1999.90;999.90;;;12.60;99.90;;;;;;6065683;23;20152;-44
2021/06/28 08:21:20;;;;;;;1999.90;999.90;;;12.60;99.90;;;;;;6065602;23;20164;-42
2021/06/28 08:23:48;;;;;;;1999.90;999.90;;;12.70;99.90;;;;;;6065662;23;20208;-43
2021/06/28 08:26:16;;;;;;;1999.90;999.90;;;12.70;99.90;;;;;;6065659;23;20173;-43
2021/06/28 08:28:45;;;;;;;1999.90;999.90;;;12.60;99.90;;;;;;6065385;23;20223;-43
2021/06/28 08:31:13;;;;;;;1999.90;999.90;;;12.60;99.90;;;;;;6065787;23;20153;-42
2021/06/28 08:33:40;;;;;;;1999.90;999.90;;;12.70;99.90;;;;;;6065368;23;20172;-47
2021/06/28 08:36:07;;;;;;;1999.90;999.90;;;12.80;99.90;;;;;;6065854;23;20153;-44
2021/06/28 08:38:34;;;;;;;1999.90;999.90;;;12.70;99.90;;;;;;6065339;23;20145;-46
2021/06/28 08:41:02;;;;;;;1999.90;999.90;;;12.80;99.90;;;;;;6065973;23;20299;-43
2021/06/28 08:43:29;;;;;;;1999.90;999.90;;;12.70;99.90;;;;;;6065137;23;20355;-44
2021/06/28 08:45:56;;;;;;;1999.90;999.90;;;12.60;99.90;;;;;;6065328;23;20228;-46
2021/06/28 08:48:23;;;;;;;1999.90;999.90;;;12.60;99.90;;;;;;6066165;23;20174;-46
2021/06/28 08:50:54;;;;;;;1999.90;999.90;;;12.60;99.90;;;;;;6065916;23;20573;-45
2021/06/28 08:53:22;;;;;;;1999.90;999.90;;;12.60;99.90;;;;;;6065237;23;20577;-47
2021/06/28 08:55:51;;;;;;;1999.90;999.90;;;12.60;99.90;;;;;;6065491;23;20331;-43
2021/06/28 08:58:19;;;;;;;1999.90;999.90;;;12.60;99.90;;;;;;6065066;23;20201;-43
2021/06/28 09:00:46;;;;;;;1999.90;999.90;;;12.60;99.90;;;;;;6065176;23;20184;-43
2021/06/28 09:03:14;;;;;;;1999.90;999.90;;;12.60;99.90;;;;;;6065644;23;20227;-42
2021/06/28 09:05:52;;;;;;;1999.90;999.90;;;12.60;99.90;;;;;;6065771;23;20184;-42
2021/06/28 09:08:22;;;;;;;1999.90;999.90;;;12.50;99.90;;;;;;6064881;23;20215;-42
2021/06/28 09:10:49;;;;;;;1999.90;999.90;;;12.40;99.90;;;;;;6064103;23;20179;-50
2021/06/28 09:13:15;;;;;;;1999.90;999.90;;;12.30;99.90;;;;;;6064304;23;20149;-43
2021/06/28 09:15:52;;;;;;;1999.90;999.90;;;12.40;99.90;;;;;;6064945;23;20184;-40
2021/06/28 09:18:26;;;;;;;1999.90;999.90;;;12.40;99.90;;;;;;6065160;23;20384;-41
2021/06/28 09:21:07;;;;;;;1999.90;999.90;;;12.30;99.90;;;;;;6064441;23;20481;-42
2021/06/28 09:23:38;;;;;;;1999.90;999.90;;;12.40;99.90;;;;;;6065464;23;20140;-42
2021/06/28 09:26:14;;;;;;;1999.90;999.90;;;12.30;99.90;;;;;;6064970;23;20208;-41
2021/06/28 09:28:44;;;;;;;1999.90;999.90;;;12.40;99.90;;;;;;6065112;23;20132;-41
2021/06/28 09:31:18;;;;;;;1999.90;999.90;;;12.50;99.90;;;;;;6065563;23;20256;-42
2021/06/28 09:34:02;;;;;;;1999.90;999.90;;;12.80;99.90;;;;;;6067037;23;20153;-40
2021/06/28 09:36:29;;;;;;;1999.90;999.90;;;12.80;99.90;;;;;;6066979;23;20152;-45
2021/06/28 09:38:56;;;;;;;1999.90;999.90;;;12.70;99.90;;;;;;6067446;23;20219;-47
2021/06/28 09:41:30;;;;;;;1999.90;999.90;;;12.50;99.90;;;;;;6066901;23;20171;-44
2021/06/28 09:44:08;;;;;;;1999.90;999.90;;;12.40;99.90;;;;;;6067400;23;20149;-43
2021/06/28 09:46:37;;;;;;;1999.90;999.90;;;12.30;99.90;;;;;;6067277;23;20276;-43
2021/06/28 09:49:06;;;;;;;1999.90;999.90;;;12.30;99.90;;;;;;6040046;23;20168;-42
2021/06/28 09:51:38;;;;;;;1999.90;999.90;;;12.30;99.90;;;;;;6041340;23;20161;-45
2021/06/28 09:54:08;;;;;;;1999.90;999.90;;;12.20;99.90;;;;;;6067126;23;20235;-43
2021/06/28 09:56:45;;;;;;;1999.90;999.90;;;12.20;99.90;;;;;;6067218;23;20165;-45
2021/06/28 09:59:32;;;;;;;1999.90;999.90;;;12.20;99.90;;;;;;6067559;23;20671;-43
2021/06/28 10:02:25;;;;;;;1999.90;999.90;;;12.20;99.90;;;;;;6066863;23;20156;-43
2021/06/28 10:05:02;;;;;;;1999.90;999.90;;;12.20;99.90;;;;;;6066952;23;20144;-44
2021/06/28 10:07:35;;;;;;;1999.90;999.90;;;12.20;99.90;;;;;;6067057;23;20159;-43
2021/06/28 10:10:20;;;;;;;1999.90;999.90;;;12.20;99.90;;;;;;6066912;23;20212;-41
2021/06/28 10:12:53;;;;;;;1999.90;999.90;;;12.30;99.90;;;;;;6066899;23;20657;-44
2021/06/28 10:15:23;;;;;;;1999.90;999.90;;;12.30;99.90;;;;;;6066973;23;20188;-44
2021/06/28 10:17:50;;;;;;;1999.90;999.90;;;12.30;99.90;;;;;;6066550;23;20227;-45
2021/06/28 10:20:19;;;;;;;1999.90;999.90;;;12.30;99.90;;;;;;6067487;23;20149;-43
2021/06/28 10:22:48;;;;;;;1999.90;999.90;;;12.30;99.90;;;;;;6066364;23;20530;-44
2021/06/28 10:25:17;;;;;;;1999.90;999.90;;;12.50;99.90;;;;;;6066349;23;20192;-44
2021/06/28 10:27:44;;;;;;;1999.90;999.90;;;12.50;99.90;;;;;;6066950;23;20149;-45
2021/06/28 10:30:17;;;;;;;1999.90;999.90;;;12.50;99.90;;;;;;6066558;23;20239;-46
2021/06/28 10:32:45;;;;;;;1999.90;999.90;;;12.40;99.90;;;;;;6067006;23;20137;-44
2021/06/28 10:35:15;;;;;;;1999.90;999.90;;;12.40;99.90;;;;;;6065908;23;20183;-46
2021/06/28 10:37:46;;;;;;;1999.90;999.90;;;12.40;99.90;;;;;;6066797;23;20168;-45
2021/06/28 10:40:14;;;;;;;1999.90;999.90;;;12.40;99.90;;;;;;6066851;23;20623;-49
2021/06/28 10:42:45;;;;;;;1999.90;999.90;;;12.30;99.90;;;;;;6067031;23;20197;-46
2021/06/28 10:45:16;;;;;;;1999.90;999.90;;;12.30;99.90;;;;;;6066309;23;20137;-47
2021/06/28 10:48:07;;;;;;;1999.90;999.90;;;12.20;99.90;;;;;;6068094;23;20177;-44
2021/06/28 10:50:51;;;;;;;1999.90;999.90;;;12.00;99.90;;;;;;6066529;23;20607;-46
2021/06/28 10:53:37;;;;;;;1999.90;999.90;;;12.00;99.90;;;;;;6066504;23;20156;-44
2021/06/28 10:56:32;;;;;;;1999.90;999.90;;;12.00;99.90;;;;;;6066373;23;20169;-45
2021/06/28 10:59:01;;;;;;;1999.90;999.90;;;11.90;99.90;;;;;;6047047;23;20157;-44
2021/06/28 11:01:39;;;;;;;1999.90;999.90;;;11.90;99.90;;;;;;6066800;23;20172;-44
2021/06/28 11:04:10;;;;;;;1999.90;999.90;;;11.80;99.90;;;;;;6066754;23;20144;-43
2021/06/28 11:06:44;;;;;;;1999.90;999.90;;;11.90;99.90;;;;;;6066590;23;20153;-45
2021/06/28 11:09:11;;;;;;;1999.90;999.90;;;11.80;99.90;;;;;;6066942;23;20137;-44
2021/06/28 11:11:44;;;;;;;1999.90;999.90;;;11.80;99.90;;;;;;6066542;23;20212;-44
2021/06/28 11:14:21;;;;;;;1999.90;999.90;;;11.90;99.90;;;;;;6066118;23;20190;-45
2021/06/28 11:17:06;;;;;;;1999.90;999.90;;;11.80;99.90;;;;;;6067352;23;20179;-45
2021/06/28 11:19:55;;;;;;;1999.90;999.90;;;11.80;99.90;;;;;;6066562;23;20504;-44
2021/06/28 11:22:28;;;;;;;1999.90;999.90;;;11.70;99.90;;;;;;6066183;23;20560;-45
2021/06/28 11:25:11;;;;;;;1999.90;999.90;;;11.80;99.90;;;;;;6065956;23;20528;-47
2021/06/28 11:28:00;;;;;;;1999.90;999.90;;;11.80;99.90;;;;;;6066025;23;20156;-46
2021/06/28 11:30:37;;;;;;;1999.90;999.90;;;11.90;99.90;;;;;;6051857;23;20423;-46
2021/06/28 11:33:09;;;;;;;1999.90;999.90;;;11.70;99.90;;;;;;6066074;23;20208;-44
2021/06/28 11:35:42;;;;;;;1999.90;999.90;;;11.70;99.90;;;;;;6066065;23;20264;-48
2021/06/28 11:38:29;;;;;;;1999.90;999.90;;;11.70;99.90;;;;;;6066250;23;20176;-46
2021/06/28 11:41:10;;;;;;;1999.90;999.90;;;11.70;99.90;;;;;;6066108;23;20203;-46
2021/06/28 11:43:42;;;;;;;1999.90;999.90;;;11.60;99.90;;;;;;6066513;23;20141;-45
2021/06/28 11:46:33;;;;;;;1999.90;999.90;;;11.50;99.90;;;;;;6066159;23;20157;-47
2021/06/28 11:49:04;;;;;;;1999.90;999.90;;;11.60;99.90;;;;;;6065757;23;20149;-46
2021/06/28 11:51:35;;;;;;;1999.90;999.90;;;11.60;99.90;;;;;;6066192;23;20631;-46
2021/06/28 11:54:09;;;;;;;1999.90;999.90;;;11.60;99.90;;;;;;6066445;23;20172;-45
2021/06/28 11:56:40;;;;;;;1999.90;999.90;;;11.90;99.90;;;;;;6066141;23;20160;-44
2021/06/28 11:59:19;;;;;;;1999.90;999.90;;;11.80;99.90;;;;;;6066670;23;20244;-43
2021/06/28 12:01:51;;;;;;;1999.90;999.90;;;11.70;99.90;;;;;;6065497;23;20595;-42
2021/06/28 12:04:21;;;;;;;1999.90;999.90;;;11.70;99.90;;;;;;6066053;23;20137;-44
2021/06/28 12:06:50;;;;;;;1999.90;999.90;;;11.70;99.90;;;;;;6066704;23;20159;-45
2021/06/28 12:09:18;;;;;;;1999.90;999.90;;;11.70;99.90;;;;;;6065929;23;20529;-43